createdAt,value
2019-01-30T00:00:15.647Z,20.70
2019-01-30T00:01:15.681Z,20.10
2019-01-30T00:02:15.738Z,20.80
2019-01-30T00:03:15.772Z,20.70
2019-01-30T00:04:15.783Z,21.60
2019-01-30T00:05:15.825Z,22.10
2019-01-30T00:06:15.851Z,21.30
2019-01-30T00:07:15.888Z,21.00
2019-01-30T00:08:15.918Z,20.10
2019-01-30T00:09:15.953Z,20.80
2019-01-30T00:10:15.998Z,22.00
2019-01-30T00:11:16.078Z,22.00
2019-01-30T00:12:16.054Z,23.20
2019-01-30T00:13:16.087Z,21.60
2019-01-30T00:14:16.132Z,22.20
2019-01-30T00:15:16.160Z,22.80
2019-01-30T00:16:16.190Z,24.40
2019-01-30T00:17:16.221Z,24.90
2019-01-30T00:18:16.260Z,24.20
2019-01-30T00:19:16.294Z,23.50
2019-01-30T00:20:16.324Z,23.60
2019-01-30T00:21:16.358Z,25.20
2019-01-30T00:22:16.392Z,24.80
2019-01-30T00:23:16.425Z,25.10
2019-01-30T00:24:16.464Z,24.20
2019-01-30T00:25:16.494Z,23.40
2019-01-30T00:26:16.528Z,22.40
2019-01-30T00:27:16.569Z,22.70
2019-01-30T00:28:16.597Z,22.70
2019-01-30T00:29:16.634Z,24.10
2019-01-30T00:30:16.661Z,25.10
2019-01-30T00:31:16.695Z,26.10
2019-01-30T00:32:16.728Z,25.70
2019-01-30T00:33:16.764Z,24.70
2019-01-30T00:34:16.797Z,24.80
2019-01-30T00:35:16.830Z,24.10
2019-01-30T00:36:16.919Z,22.60
2019-01-30T00:37:16.899Z,21.60
2019-01-30T00:38:16.939Z,21.50
2019-01-30T00:39:16.980Z,21.20
2019-01-30T00:40:17.023Z,22.60
2019-01-30T00:41:17.034Z,21.60
2019-01-30T00:42:17.068Z,21.80
2019-01-30T00:43:17.591Z,20.90
2019-01-30T00:44:17.133Z,21.50
2019-01-30T00:45:17.168Z,21.30
2019-01-30T00:46:17.222Z,20.60
2019-01-30T00:47:17.239Z,24.70
2019-01-30T00:48:17.276Z,26.50
2019-01-30T00:49:17.309Z,26.00
2019-01-30T00:50:17.351Z,26.20
2019-01-30T00:51:17.374Z,26.20
2019-01-30T00:52:17.419Z,25.30
2019-01-30T00:53:17.469Z,23.80
2019-01-30T00:54:17.479Z,24.00
2019-01-30T00:55:17.508Z,24.20
2019-01-30T00:56:17.539Z,24.70
2019-01-30T00:57:17.574Z,24.40
2019-01-30T00:58:17.612Z,24.60
2019-01-30T00:59:17.640Z,25.70
2019-01-30T01:00:17.675Z,24.70
2019-01-30T01:01:17.715Z,24.60
2019-01-30T01:02:17.742Z,26.20
2019-01-30T01:03:17.828Z,25.90
2019-01-30T01:04:17.811Z,27.50
2019-01-30T01:05:17.845Z,27.50
2019-01-30T01:06:17.879Z,27.40
2019-01-30T01:07:17.915Z,26.40
2019-01-30T01:08:17.945Z,27.10
2019-01-30T01:09:17.985Z,28.50
2019-01-30T01:10:18.013Z,28.10
2019-01-30T01:11:18.048Z,29.40
2019-01-30T01:12:18.080Z,32.70
2019-01-30T01:13:18.123Z,29.60
2019-01-30T01:14:18.149Z,29.30
2019-01-30T01:15:18.183Z,27.60
2019-01-30T01:16:18.216Z,28.50
2019-01-30T01:17:18.251Z,27.10
2019-01-30T01:18:18.291Z,26.80
2019-01-30T01:19:18.318Z,28.70
2019-01-30T01:20:18.353Z,27.40
2019-01-30T01:21:18.393Z,26.40
2019-01-30T01:22:18.421Z,30.00
2019-01-30T01:23:18.454Z,30.20
2019-01-30T01:24:18.488Z,29.40
2019-01-30T01:25:18.521Z,28.80
2019-01-30T01:26:18.556Z,27.30
2019-01-30T01:27:18.589Z,29.50
2019-01-30T01:28:18.624Z,31.10
2019-01-30T01:29:18.658Z,29.50
2019-01-30T01:30:24.923Z,30.00
2019-01-30T01:31:18.723Z,30.40
2019-01-30T01:32:18.756Z,29.90
2019-01-30T01:33:18.801Z,30.90
2019-01-30T01:34:18.825Z,30.10
2019-01-30T01:35:18.859Z,30.60
2019-01-30T01:36:18.892Z,28.20
2019-01-30T01:37:18.934Z,30.00
2019-01-30T01:38:18.958Z,30.00
2019-01-30T01:39:18.994Z,29.30
2019-01-30T01:40:19.025Z,26.90
2019-01-30T01:41:19.061Z,28.00
2019-01-30T01:42:19.094Z,26.10
2019-01-30T01:43:19.128Z,26.00
2019-01-30T01:44:19.161Z,25.40
2019-01-30T01:45:19.203Z,25.20
2019-01-30T01:46:19.229Z,26.70
2019-01-30T01:47:19.263Z,25.60
2019-01-30T01:48:19.313Z,26.00
2019-01-30T01:49:19.331Z,25.20
2019-01-30T01:50:19.364Z,25.40
2019-01-30T01:51:19.404Z,24.70
2019-01-30T01:52:19.431Z,23.70
2019-01-30T01:53:19.466Z,25.50
2019-01-30T01:54:19.499Z,25.50
2019-01-30T01:55:19.533Z,24.70
2019-01-30T01:56:19.567Z,22.90
2019-01-30T01:57:19.608Z,23.70
2019-01-30T01:58:19.635Z,24.90
2019-01-30T01:59:19.670Z,24.50
2019-01-30T02:00:19.756Z,24.60
2019-01-30T02:01:19.737Z,23.90
2019-01-30T02:02:19.777Z,23.20
2019-01-30T02:03:19.804Z,23.60
2019-01-30T02:04:19.836Z,23.30
2019-01-30T02:05:19.871Z,23.00
2019-01-30T02:06:19.904Z,23.80
2019-01-30T02:07:19.939Z,23.50
2019-01-30T02:08:19.975Z,23.80
2019-01-30T02:09:20.007Z,22.70
2019-01-30T02:10:20.039Z,23.30
2019-01-30T02:11:20.072Z,22.40
2019-01-30T02:12:20.106Z,23.10
2019-01-30T02:13:20.140Z,20.70
2019-01-30T02:14:20.174Z,21.00
2019-01-30T02:15:20.225Z,19.40
2019-01-30T02:16:20.253Z,19.50
2019-01-30T02:17:20.277Z,20.90
2019-01-30T02:18:20.308Z,21.20
2019-01-30T02:19:20.357Z,20.50
2019-01-30T02:20:20.377Z,18.90
2019-01-30T02:21:20.427Z,18.80
2019-01-30T02:22:20.444Z,19.40
2019-01-30T02:23:20.477Z,19.80
2019-01-30T02:24:20.512Z,19.10
2019-01-30T02:25:20.544Z,19.70
2019-01-30T02:26:20.580Z,19.20
2019-01-30T02:27:20.623Z,19.60
2019-01-30T02:28:20.646Z,18.50
2019-01-30T02:29:20.681Z,19.90
2019-01-30T02:30:20.714Z,19.90
2019-01-30T02:31:20.759Z,19.40
2019-01-30T02:32:20.781Z,19.60
2019-01-30T02:33:20.816Z,17.70
2019-01-30T02:34:20.851Z,18.50
2019-01-30T02:35:20.883Z,18.90
2019-01-30T02:36:20.920Z,19.30
2019-01-30T02:37:20.952Z,18.80
2019-01-30T02:38:20.986Z,18.30
2019-01-30T02:39:21.026Z,18.60
2019-01-30T02:40:21.050Z,18.10
2019-01-30T02:41:21.086Z,17.90
2019-01-30T02:42:21.120Z,18.30
2019-01-30T02:43:21.151Z,18.20
2019-01-30T02:44:21.193Z,17.40
2019-01-30T02:45:21.220Z,16.70
2019-01-30T02:46:21.255Z,17.30
2019-01-30T02:47:21.287Z,17.30
2019-01-30T02:48:21.323Z,17.10
2019-01-30T02:49:21.353Z,17.10
2019-01-30T02:50:21.388Z,17.30
2019-01-30T02:51:21.426Z,16.70
2019-01-30T02:52:21.453Z,16.10
2019-01-30T02:53:21.493Z,17.10
2019-01-30T02:54:21.522Z,17.20
2019-01-30T02:55:21.560Z,17.20
2019-01-30T02:56:21.591Z,17.40
2019-01-30T02:57:21.625Z,17.40
2019-01-30T02:58:21.660Z,16.80
2019-01-30T02:59:21.692Z,16.30
2019-01-30T03:00:21.727Z,16.50
2019-01-30T03:01:21.761Z,16.40
2019-01-30T03:02:21.793Z,17.00
2019-01-30T03:03:21.827Z,16.80
2019-01-30T03:04:21.860Z,16.90
2019-01-30T03:05:21.892Z,16.30
2019-01-30T03:06:21.926Z,15.80
2019-01-30T03:07:21.961Z,16.00
2019-01-30T03:08:21.994Z,15.40
2019-01-30T03:09:22.026Z,16.00
2019-01-30T03:10:22.070Z,16.50
2019-01-30T03:11:22.097Z,15.90
2019-01-30T03:12:22.129Z,16.10
2019-01-30T03:13:22.164Z,15.10
2019-01-30T03:14:22.196Z,15.40
2019-01-30T03:15:22.234Z,15.60
2019-01-30T03:16:22.263Z,16.50
2019-01-30T03:17:22.297Z,16.10
2019-01-30T03:18:22.331Z,15.20
2019-01-30T03:19:22.465Z,16.50
2019-01-30T03:20:22.396Z,16.20
2019-01-30T03:21:22.431Z,16.50
2019-01-30T03:22:22.475Z,15.90
2019-01-30T03:23:22.501Z,17.20
2019-01-30T03:24:22.533Z,17.30
2019-01-30T03:25:22.572Z,17.60
2019-01-30T03:26:22.600Z,17.10
2019-01-30T03:27:22.641Z,18.30
2019-01-30T03:28:22.668Z,17.20
2019-01-30T03:29:22.701Z,16.60
2019-01-30T03:30:22.748Z,17.00
2019-01-30T03:31:22.779Z,17.20
2019-01-30T03:32:22.810Z,15.90
2019-01-30T03:33:22.836Z,16.30
2019-01-30T03:34:22.871Z,16.90
2019-01-30T03:35:22.904Z,15.80
2019-01-30T03:36:22.939Z,17.00
2019-01-30T03:37:22.977Z,17.00
2019-01-30T03:38:23.005Z,17.80
2019-01-30T03:39:23.043Z,17.30
2019-01-30T03:40:23.072Z,18.60
2019-01-30T03:41:23.105Z,19.00
2019-01-30T03:42:23.138Z,20.00
2019-01-30T03:43:23.173Z,21.90
2019-01-30T03:44:23.205Z,19.20
2019-01-30T03:45:23.241Z,18.20
2019-01-30T03:46:23.274Z,18.40
2019-01-30T03:47:23.314Z,18.60
2019-01-30T03:48:23.345Z,18.40
2019-01-30T03:49:23.373Z,18.70
2019-01-30T03:50:23.412Z,17.60
2019-01-30T03:51:23.442Z,17.40
2019-01-30T03:52:23.483Z,17.20
2019-01-30T03:53:23.510Z,16.10
2019-01-30T03:54:23.542Z,16.70
2019-01-30T03:55:23.577Z,16.50
2019-01-30T03:56:23.619Z,15.80
2019-01-30T03:57:23.644Z,16.80
2019-01-30T03:58:23.685Z,16.20
2019-01-30T03:59:23.711Z,16.20
2019-01-30T04:00:23.744Z,16.40
2019-01-30T04:01:26.663Z,16.50
2019-01-30T04:02:23.813Z,16.40
2019-01-30T04:03:23.845Z,15.70
2019-01-30T04:04:23.877Z,15.80
2019-01-30T04:05:23.919Z,17.00
2019-01-30T04:06:23.947Z,17.90
2019-01-30T04:07:23.981Z,16.40
2019-01-30T04:08:24.014Z,17.90
2019-01-30T04:09:24.066Z,17.30
2019-01-30T04:10:24.084Z,17.60
2019-01-30T04:11:24.115Z,16.90
2019-01-30T04:12:24.147Z,17.00
2019-01-30T04:13:24.184Z,16.20
2019-01-30T04:14:24.220Z,16.30
2019-01-30T04:15:24.250Z,15.70
2019-01-30T04:16:24.282Z,17.40
2019-01-30T04:17:24.318Z,18.10
2019-01-30T04:18:24.351Z,16.60
2019-01-30T04:19:24.385Z,16.90
2019-01-30T04:20:24.424Z,15.00
2019-01-30T04:21:24.458Z,15.30
2019-01-30T04:22:24.486Z,14.60
2019-01-30T04:23:24.523Z,15.90
2019-01-30T04:24:24.552Z,16.70
2019-01-30T04:25:24.587Z,14.10
2019-01-30T04:26:24.622Z,13.60
2019-01-30T04:27:24.668Z,12.40
2019-01-30T04:28:24.696Z,12.30
2019-01-30T04:29:24.723Z,11.50
2019-01-30T04:30:24.757Z,12.70
2019-01-30T04:31:24.790Z,12.70
2019-01-30T04:32:24.823Z,12.40
2019-01-30T04:33:24.858Z,11.80
2019-01-30T04:34:24.953Z,12.10
2019-01-30T04:35:24.926Z,12.60
2019-01-30T04:36:24.964Z,11.90
2019-01-30T04:37:24.996Z,11.30
2019-01-30T04:38:25.025Z,10.60
2019-01-30T04:39:25.067Z,10.60
2019-01-30T04:40:25.094Z,10.40
2019-01-30T04:41:25.129Z,9.80
2019-01-30T04:42:25.163Z,11.20
2019-01-30T04:43:25.199Z,10.00
2019-01-30T04:44:25.238Z,10.00
2019-01-30T04:45:25.265Z,10.10
2019-01-30T04:46:25.301Z,9.60
2019-01-30T04:47:25.335Z,9.70
2019-01-30T04:48:25.375Z,10.10
2019-01-30T04:49:25.401Z,10.70
2019-01-30T04:50:25.434Z,10.40
2019-01-30T04:51:25.467Z,10.10
2019-01-30T04:52:25.509Z,10.60
2019-01-30T04:53:25.539Z,12.90
2019-01-30T04:54:25.581Z,12.00
2019-01-30T04:55:25.607Z,11.40
2019-01-30T04:56:25.639Z,11.00
2019-01-30T04:57:25.684Z,10.90
2019-01-30T04:58:25.724Z,10.90
2019-01-30T04:59:25.745Z,10.80
2019-01-30T05:00:25.780Z,11.10
2019-01-30T05:01:25.811Z,12.60
2019-01-30T05:02:25.845Z,12.50
2019-01-30T05:03:25.879Z,12.20
2019-01-30T05:04:25.913Z,12.10
2019-01-30T05:05:25.950Z,12.00
2019-01-30T05:06:25.980Z,13.90
2019-01-30T05:07:26.024Z,10.80
2019-01-30T05:08:26.049Z,10.50
2019-01-30T05:09:26.085Z,9.60
2019-01-30T05:10:26.118Z,10.50
2019-01-30T05:11:26.161Z,9.60
2019-01-30T05:12:26.187Z,9.50
2019-01-30T05:13:26.219Z,10.20
2019-01-30T05:14:26.261Z,10.00
2019-01-30T05:15:26.288Z,11.30
2019-01-30T05:16:26.325Z,11.20
2019-01-30T05:17:26.359Z,9.60
2019-01-30T05:18:26.395Z,9.00
2019-01-30T05:19:26.433Z,8.20
2019-01-30T05:20:26.460Z,8.20
2019-01-30T05:21:26.493Z,7.90
2019-01-30T05:22:26.537Z,8.50
2019-01-30T05:23:26.564Z,8.10
2019-01-30T05:24:26.605Z,8.30
2019-01-30T05:25:26.633Z,8.30
2019-01-30T05:26:26.676Z,7.70
2019-01-30T05:27:26.701Z,7.90
2019-01-30T05:28:26.742Z,7.50
2019-01-30T05:29:26.770Z,7.40
2019-01-30T05:30:26.810Z,8.70
2019-01-30T05:31:26.840Z,7.20
2019-01-30T05:32:26.878Z,7.50
2019-01-30T05:33:26.907Z,7.90
2019-01-30T05:34:26.950Z,8.30
2019-01-30T05:35:27.088Z,8.90
2019-01-30T05:36:27.011Z,8.70
2019-01-30T05:37:27.117Z,8.00
2019-01-30T05:38:27.079Z,7.90
2019-01-30T05:39:27.157Z,6.70
2019-01-30T05:40:27.152Z,6.90
2019-01-30T05:41:27.181Z,7.30
2019-01-30T05:42:27.221Z,6.70
2019-01-30T05:43:27.250Z,7.00
2019-01-30T05:44:27.292Z,6.90
2019-01-30T05:45:27.326Z,7.00
2019-01-30T05:46:27.353Z,7.00
2019-01-30T05:47:27.393Z,8.00
2019-01-30T05:48:27.423Z,7.10
2019-01-30T05:49:29.149Z,7.70
2019-01-30T05:50:27.693Z,9.60
2019-01-30T05:51:27.526Z,10.20
2019-01-30T05:52:27.560Z,12.50
2019-01-30T05:53:27.594Z,10.60
2019-01-30T05:54:27.630Z,9.50
2019-01-30T05:56:27.704Z,7.40
2019-01-30T05:57:27.735Z,8.10
2019-01-30T05:58:27.783Z,7.70
2019-01-30T05:59:27.965Z,7.80
2019-01-30T06:00:27.838Z,8.50
2019-01-30T06:01:27.872Z,8.20
2019-01-30T06:02:27.905Z,10.10
2019-01-30T06:03:27.939Z,11.70
2019-01-30T06:04:27.975Z,10.70
2019-01-30T06:05:28.009Z,8.80
2019-01-30T06:06:28.044Z,9.70
2019-01-30T06:07:28.087Z,10.20
2019-01-30T06:08:28.113Z,10.70
2019-01-30T06:09:28.147Z,8.70
2019-01-30T06:10:28.183Z,8.00
2019-01-30T06:11:28.219Z,8.00
2019-01-30T06:12:28.269Z,9.10
2019-01-30T06:13:28.285Z,6.90
2019-01-30T06:14:28.322Z,8.60
2019-01-30T06:15:28.355Z,7.30
2019-01-30T06:16:28.388Z,7.30
2019-01-30T06:17:28.423Z,7.20
2019-01-30T06:18:28.457Z,7.90
2019-01-30T06:19:28.492Z,7.80
2019-01-30T06:20:28.526Z,8.20
2019-01-30T06:21:28.564Z,8.90
2019-01-30T06:22:28.596Z,8.10
2019-01-30T06:23:28.630Z,7.40
2019-01-30T06:24:28.665Z,6.90
2019-01-30T06:25:28.712Z,7.50
2019-01-30T06:26:28.742Z,7.60
2019-01-30T06:27:28.771Z,8.00
2019-01-30T06:28:29.435Z,6.40
2019-01-30T06:29:28.838Z,5.60
2019-01-30T06:30:28.871Z,6.60
2019-01-30T06:31:28.907Z,5.70
2019-01-30T06:32:28.940Z,6.50
2019-01-30T06:33:28.973Z,7.00
2019-01-30T06:34:29.016Z,8.30
2019-01-30T06:35:29.065Z,5.20
2019-01-30T06:36:29.078Z,4.80
2019-01-30T06:37:29.113Z,6.20
2019-01-30T06:38:29.157Z,6.00
2019-01-30T06:39:29.195Z,7.20
2019-01-30T06:40:29.216Z,5.60
2019-01-30T06:41:29.253Z,5.40
2019-01-30T06:42:29.286Z,5.50
2019-01-30T06:43:29.321Z,5.80
2019-01-30T06:44:29.371Z,4.60
2019-01-30T06:45:29.397Z,5.50
2019-01-30T06:46:29.424Z,7.70
2019-01-30T06:47:29.467Z,8.60
2019-01-30T06:48:29.493Z,7.80
2019-01-30T06:49:29.526Z,6.50
2019-01-30T06:50:29.562Z,6.00
2019-01-30T06:51:29.598Z,5.70
2019-01-30T06:52:29.632Z,5.70
2019-01-30T06:53:29.665Z,7.30
2019-01-30T06:54:29.700Z,6.40
2019-01-30T06:55:29.739Z,6.20
2019-01-30T06:56:29.770Z,6.60
2019-01-30T06:57:29.810Z,5.70
2019-01-30T06:58:29.837Z,7.00
2019-01-30T06:59:29.873Z,5.90
2019-01-30T07:00:29.906Z,6.00
2019-01-30T07:01:29.941Z,5.30
2019-01-30T07:02:32.351Z,5.50
2019-01-30T07:03:30.112Z,6.50
2019-01-30T07:04:30.045Z,6.10
2019-01-30T07:05:30.080Z,5.30
2019-01-30T07:06:30.117Z,5.70
2019-01-30T07:07:30.154Z,6.60
2019-01-30T07:08:30.183Z,6.30
2019-01-30T07:09:30.229Z,5.60
2019-01-30T07:10:30.257Z,5.70
2019-01-30T07:11:30.296Z,4.80
2019-01-30T07:12:30.321Z,5.60
2019-01-30T07:13:30.358Z,5.50
2019-01-30T07:14:30.393Z,4.40
2019-01-30T07:15:30.435Z,5.00
2019-01-30T07:16:30.463Z,5.70
2019-01-30T07:17:30.495Z,6.60
2019-01-30T07:18:30.531Z,5.40
2019-01-30T07:19:30.571Z,4.90
2019-01-30T07:20:31.283Z,5.40
2019-01-30T07:21:30.635Z,5.50
2019-01-30T07:22:30.668Z,5.50
2019-01-30T07:23:30.703Z,5.70
2019-01-30T07:24:30.736Z,7.70
2019-01-30T07:25:30.773Z,7.40
2019-01-30T07:26:30.907Z,5.90
2019-01-30T07:27:30.844Z,5.60
2019-01-30T07:28:30.879Z,5.10
2019-01-30T07:29:30.911Z,4.90
2019-01-30T07:30:30.954Z,4.70
2019-01-30T07:31:30.981Z,5.70
2019-01-30T07:32:31.021Z,8.80
2019-01-30T07:33:31.050Z,7.40
2019-01-30T07:34:31.089Z,7.30
2019-01-30T07:35:31.119Z,7.40
2019-01-30T07:36:31.153Z,6.20
2019-01-30T07:37:31.192Z,6.60
2019-01-30T07:38:31.224Z,6.60
2019-01-30T07:39:31.262Z,6.00
2019-01-30T07:40:31.294Z,7.20
2019-01-30T07:41:31.328Z,6.30
2019-01-30T07:42:31.363Z,5.70
2019-01-30T07:43:31.404Z,5.30
2019-01-30T07:44:31.430Z,7.50
2019-01-30T07:45:31.465Z,5.50
2019-01-30T07:46:31.500Z,4.40
2019-01-30T07:47:31.536Z,6.50
2019-01-30T07:48:31.573Z,6.60
2019-01-30T07:49:31.611Z,6.20
2019-01-30T07:50:31.642Z,10.00
2019-01-30T07:51:31.675Z,8.60
2019-01-30T07:52:32.789Z,7.40
2019-01-30T07:53:31.742Z,6.30
2019-01-30T07:54:31.795Z,5.70
2019-01-30T07:55:31.848Z,6.80
2019-01-30T07:56:31.848Z,5.20
2019-01-30T07:57:31.886Z,5.50
2019-01-30T07:58:31.928Z,6.70
2019-01-30T07:59:32.181Z,6.20
2019-01-30T08:00:31.987Z,7.00
2019-01-30T08:01:32.084Z,6.30
2019-01-30T08:02:32.057Z,7.30
2019-01-30T08:03:32.091Z,5.80
2019-01-30T08:04:32.124Z,4.40
2019-01-30T08:05:32.161Z,4.90
2019-01-30T08:06:32.196Z,5.20
2019-01-30T08:07:32.229Z,5.30
2019-01-30T08:08:32.265Z,8.10
2019-01-30T08:09:32.300Z,6.80
2019-01-30T08:10:32.337Z,6.10
2019-01-30T08:11:33.090Z,6.30
2019-01-30T08:12:32.405Z,6.60
2019-01-30T08:13:32.441Z,4.20
2019-01-30T08:14:32.485Z,6.00
2019-01-30T08:15:32.513Z,6.30
2019-01-30T08:16:32.547Z,6.50
2019-01-30T08:17:32.612Z,7.00
2019-01-30T08:18:32.615Z,7.60
2019-01-30T08:19:32.653Z,4.80
2019-01-30T08:20:32.684Z,4.80
2019-01-30T08:21:32.731Z,6.40
2019-01-30T08:22:32.757Z,8.00
2019-01-30T08:23:33.175Z,8.30
2019-01-30T08:24:32.995Z,6.60
2019-01-30T08:25:32.859Z,5.60
2019-01-30T08:26:32.897Z,6.90
2019-01-30T08:27:34.057Z,6.20
2019-01-30T08:28:33.316Z,6.70
2019-01-30T08:29:33.009Z,5.80
2019-01-30T08:30:33.288Z,5.40
2019-01-30T08:31:33.220Z,5.00
2019-01-30T08:32:33.193Z,5.40
2019-01-30T08:33:33.149Z,6.50
2019-01-30T08:34:33.176Z,6.30
2019-01-30T08:35:33.211Z,5.90
2019-01-30T08:36:33.394Z,5.50
2019-01-30T08:37:33.280Z,5.70
2019-01-30T08:38:33.315Z,5.60
2019-01-30T08:39:33.351Z,5.50
2019-01-30T08:40:33.385Z,4.60
2019-01-30T08:41:33.420Z,5.10
2019-01-30T08:42:33.456Z,4.90
2019-01-30T08:43:33.492Z,5.20
2019-01-30T08:44:33.526Z,5.40
2019-01-30T08:45:33.566Z,6.70
2019-01-30T08:46:33.600Z,5.30
2019-01-30T08:47:33.635Z,5.80
2019-01-30T08:48:33.668Z,5.30
2019-01-30T08:49:33.704Z,4.90
2019-01-30T08:50:33.747Z,5.60
2019-01-30T08:51:33.773Z,5.50
2019-01-30T08:52:33.810Z,5.30
2019-01-30T08:53:33.846Z,5.20
2019-01-30T08:54:33.880Z,5.30
2019-01-30T08:55:33.916Z,6.60
2019-01-30T08:56:38.891Z,6.60
2019-01-30T08:57:33.993Z,6.20
2019-01-30T08:58:34.028Z,6.20
2019-01-30T08:59:34.058Z,6.70
2019-01-30T09:00:34.094Z,6.40
2019-01-30T09:01:34.133Z,6.60
2019-01-30T09:02:34.276Z,5.90
2019-01-30T09:03:34.201Z,5.60
2019-01-30T09:04:34.237Z,6.20
2019-01-30T09:05:34.271Z,6.50
2019-01-30T09:06:34.323Z,5.80
2019-01-30T09:07:43.988Z,5.20
2019-01-30T09:08:34.377Z,4.90
2019-01-30T09:09:34.417Z,5.40
2019-01-30T09:10:34.450Z,4.90
2019-01-30T09:11:34.485Z,4.90
2019-01-30T09:12:34.523Z,6.40
2019-01-30T09:13:34.645Z,5.90
2019-01-30T09:14:34.591Z,5.70
2019-01-30T09:15:34.629Z,7.20
2019-01-30T09:16:34.662Z,6.80
2019-01-30T09:17:34.698Z,6.90
2019-01-30T09:18:34.746Z,6.90
2019-01-30T09:19:34.786Z,5.20
2019-01-30T09:20:34.807Z,7.20
2019-01-30T09:21:34.850Z,6.80
2019-01-30T09:22:34.879Z,6.50
2019-01-30T09:23:34.912Z,6.80
2019-01-30T09:24:34.979Z,6.50
2019-01-30T09:25:35.066Z,6.60
2019-01-30T09:26:35.023Z,7.90
2019-01-30T09:27:35.057Z,6.90
2019-01-30T09:28:35.093Z,6.60
2019-01-30T09:29:35.127Z,7.10
2019-01-30T09:30:35.164Z,6.20
2019-01-30T09:31:35.202Z,6.00
2019-01-30T09:32:35.236Z,6.10
2019-01-30T09:33:35.414Z,7.10
2019-01-30T09:34:35.332Z,6.10
2019-01-30T09:35:35.350Z,6.30
2019-01-30T09:36:35.380Z,6.60
2019-01-30T09:37:35.433Z,7.20
2019-01-30T09:38:35.480Z,5.30
2019-01-30T09:39:35.501Z,5.10
2019-01-30T09:40:35.541Z,5.80
2019-01-30T09:41:35.561Z,5.50
2019-01-30T09:42:35.595Z,5.20
2019-01-30T09:43:35.632Z,5.10
2019-01-30T09:44:35.669Z,5.60
2019-01-30T09:45:35.705Z,5.90
2019-01-30T09:46:35.738Z,5.40
2019-01-30T09:47:35.780Z,6.20
2019-01-30T09:48:37.049Z,5.40
2019-01-30T09:49:35.847Z,5.60
2019-01-30T09:50:35.897Z,5.40
2019-01-30T09:51:35.935Z,5.60
2019-01-30T09:52:35.955Z,5.50
2019-01-30T09:53:36.016Z,6.20
2019-01-30T09:54:36.037Z,6.10
2019-01-30T09:55:36.092Z,6.20
2019-01-30T09:56:36.145Z,6.10
2019-01-30T09:57:36.136Z,6.00
2019-01-30T09:58:36.180Z,6.00
2019-01-30T09:59:36.209Z,6.10
2019-01-30T10:00:36.244Z,6.00
2019-01-30T10:01:36.282Z,5.90
2019-01-30T10:02:36.316Z,5.40
2019-01-30T10:03:36.802Z,5.20
2019-01-30T10:04:36.435Z,5.10
2019-01-30T10:05:36.426Z,5.50
2019-01-30T10:06:36.462Z,5.30
2019-01-30T10:07:36.500Z,5.50
2019-01-30T10:08:36.540Z,5.70
2019-01-30T10:09:37.680Z,5.70
2019-01-30T10:10:36.619Z,5.40
2019-01-30T10:11:36.642Z,5.60
2019-01-30T10:12:36.682Z,5.30
2019-01-30T10:13:37.501Z,5.10
2019-01-30T10:14:36.749Z,5.70
2019-01-30T10:15:36.787Z,6.30
2019-01-30T10:16:36.821Z,5.60
2019-01-30T10:17:36.856Z,6.40
2019-01-30T10:18:36.893Z,5.60
2019-01-30T10:19:40.034Z,5.60
2019-01-30T10:20:36.964Z,5.90
2019-01-30T10:21:37.001Z,5.30
2019-01-30T10:22:37.041Z,5.50
2019-01-30T10:23:37.073Z,5.30
2019-01-30T10:24:37.108Z,5.80
2019-01-30T10:25:37.152Z,5.50
2019-01-30T10:26:37.189Z,5.50
2019-01-30T10:27:37.219Z,5.80
2019-01-30T10:28:37.259Z,5.50
2019-01-30T10:29:37.288Z,5.20
2019-01-30T10:30:37.324Z,5.80
2019-01-30T10:31:37.362Z,5.30
2019-01-30T10:32:37.397Z,6.10
2019-01-30T10:33:46.405Z,5.60
2019-01-30T10:34:37.471Z,5.10
2019-01-30T10:35:37.513Z,6.10
2019-01-30T10:36:37.592Z,5.50
2019-01-30T10:37:37.578Z,5.80
2019-01-30T10:38:37.616Z,5.80
2019-01-30T10:39:37.667Z,5.70
2019-01-30T10:40:37.689Z,4.90
2019-01-30T10:41:37.724Z,7.20
2019-01-30T10:42:37.764Z,8.70
2019-01-30T10:43:37.804Z,8.60
2019-01-30T10:44:37.832Z,6.80
2019-01-30T10:45:38.436Z,5.40
2019-01-30T10:46:37.905Z,6.50
2019-01-30T10:47:37.943Z,5.80
2019-01-30T10:48:37.981Z,5.20
2019-01-30T10:49:38.013Z,5.50
2019-01-30T10:50:38.050Z,5.10
2019-01-30T10:51:38.087Z,5.40
2019-01-30T10:52:38.125Z,5.00
2019-01-30T10:53:38.158Z,5.50
2019-01-30T10:54:38.203Z,5.10
2019-01-30T10:55:38.239Z,5.30
2019-01-30T10:56:38.270Z,6.00
2019-01-30T10:57:38.305Z,6.50
2019-01-30T10:58:38.342Z,5.50
2019-01-30T10:59:38.442Z,6.00
2019-01-30T11:00:38.417Z,5.40
2019-01-30T11:01:38.454Z,5.90
2019-01-30T11:02:38.490Z,6.30
2019-01-30T11:03:38.527Z,5.40
2019-01-30T11:04:38.569Z,8.20
2019-01-30T11:05:38.599Z,7.00
2019-01-30T11:06:38.738Z,6.50
2019-01-30T11:07:38.673Z,5.90
2019-01-30T11:08:38.709Z,5.80
2019-01-30T11:09:38.748Z,6.10
2019-01-30T11:10:38.789Z,6.80
2019-01-30T11:11:38.824Z,6.20
2019-01-30T11:12:38.868Z,6.60
2019-01-30T11:13:38.896Z,5.50
2019-01-30T11:14:41.016Z,5.10
2019-01-30T11:15:38.977Z,5.50
2019-01-30T11:16:39.005Z,5.70
2019-01-30T11:17:39.043Z,6.80
2019-01-30T11:18:39.080Z,7.70
2019-01-30T11:19:39.120Z,6.20
2019-01-30T11:20:39.155Z,7.80
2019-01-30T11:21:39.191Z,6.90
2019-01-30T11:22:39.229Z,6.60
2019-01-30T11:23:39.264Z,8.50
2019-01-30T11:24:39.309Z,6.50
2019-01-30T11:25:39.367Z,6.60
2019-01-30T11:26:39.380Z,6.10
2019-01-30T11:27:39.411Z,7.50
2019-01-30T11:28:39.449Z,6.70
2019-01-30T11:29:39.486Z,6.30
2019-01-30T11:30:39.552Z,6.80
2019-01-30T11:31:39.560Z,6.40
2019-01-30T11:32:39.597Z,6.40
2019-01-30T11:33:39.643Z,6.60
2019-01-30T11:34:39.672Z,6.20
2019-01-30T11:35:39.710Z,5.90
2019-01-30T11:36:39.748Z,5.60
2019-01-30T11:37:39.784Z,5.70
2019-01-30T11:38:39.822Z,6.60
2019-01-30T11:39:39.857Z,5.70
2019-01-30T11:40:39.895Z,6.10
2019-01-30T11:41:39.940Z,8.30
2019-01-30T11:42:39.968Z,9.40
2019-01-30T11:43:40.009Z,9.80
2019-01-30T11:44:40.047Z,7.00
2019-01-30T11:45:40.085Z,11.10
2019-01-30T11:46:40.276Z,8.80
2019-01-30T11:47:40.156Z,11.10
2019-01-30T11:48:40.202Z,8.80
2019-01-30T11:49:40.232Z,9.90
2019-01-30T11:50:40.266Z,9.30
2019-01-30T11:51:40.311Z,7.70
2019-01-30T11:52:40.341Z,8.20
2019-01-30T11:53:40.391Z,6.80
2019-01-30T11:54:40.416Z,6.70
2019-01-30T11:55:40.466Z,6.60
2019-01-30T11:56:40.495Z,6.50
2019-01-30T11:57:40.533Z,7.60
2019-01-30T11:58:40.565Z,9.20
2019-01-30T11:59:40.604Z,10.70
2019-01-30T12:00:40.638Z,8.00
2019-01-30T12:01:40.676Z,7.80
2019-01-30T12:02:47.660Z,6.40
2019-01-30T12:03:40.754Z,6.20
2019-01-30T12:04:40.789Z,7.70
2019-01-30T12:05:40.932Z,6.60
2019-01-30T12:06:40.862Z,7.10
2019-01-30T12:07:40.900Z,6.30
2019-01-30T12:08:40.936Z,8.50
2019-01-30T12:09:40.975Z,7.50
2019-01-30T12:10:41.011Z,6.50
2019-01-30T12:11:41.049Z,6.70
2019-01-30T12:12:41.099Z,6.60
2019-01-30T12:13:41.121Z,6.30
2019-01-30T12:14:41.161Z,9.10
2019-01-30T12:15:41.209Z,7.70
2019-01-30T12:16:41.239Z,7.00
2019-01-30T12:17:41.269Z,6.60
2019-01-30T12:18:41.307Z,7.80
2019-01-30T12:19:41.495Z,7.10
2019-01-30T12:20:41.390Z,7.30
2019-01-30T12:21:41.419Z,7.20
2019-01-30T12:22:41.464Z,7.60
2019-01-30T12:23:41.499Z,6.80
2019-01-30T12:24:41.531Z,6.10
2019-01-30T12:25:41.565Z,7.20
2019-01-30T12:26:41.609Z,7.60
2019-01-30T12:27:41.651Z,6.20
2019-01-30T12:28:41.673Z,7.50
2019-01-30T12:29:41.712Z,8.50
2019-01-30T12:30:41.756Z,7.40
2019-01-30T12:31:41.786Z,6.40
2019-01-30T12:32:41.829Z,7.60
2019-01-30T12:33:41.858Z,8.60
2019-01-30T12:34:41.895Z,7.30
2019-01-30T12:35:41.932Z,6.90
2019-01-30T12:36:41.967Z,6.90
2019-01-30T12:37:42.005Z,6.70
2019-01-30T12:38:42.158Z,6.20
2019-01-30T12:39:42.079Z,6.60
2019-01-30T12:40:42.115Z,6.60
2019-01-30T12:41:42.153Z,6.40
2019-01-30T12:42:42.188Z,6.70
2019-01-30T12:43:42.377Z,5.80
2019-01-30T12:44:42.262Z,6.90
2019-01-30T12:45:42.300Z,7.20
2019-01-30T12:46:42.336Z,7.60
2019-01-30T12:47:42.372Z,7.10
2019-01-30T12:48:42.408Z,7.70
2019-01-30T12:49:42.445Z,8.50
2019-01-30T12:50:42.497Z,8.40
2019-01-30T12:51:42.520Z,12.30
2019-01-30T12:52:42.554Z,13.10
2019-01-30T12:53:42.611Z,16.50
2019-01-30T12:54:42.630Z,14.80
2019-01-30T12:55:42.665Z,6.80
2019-01-30T12:56:42.702Z,9.00
2019-01-30T12:57:43.085Z,8.50
2019-01-30T12:58:42.776Z,9.80
2019-01-30T12:59:42.840Z,8.80
2019-01-30T13:00:42.849Z,8.00
2019-01-30T13:01:42.936Z,8.50
2019-01-30T13:02:42.923Z,8.00
2019-01-30T13:03:42.975Z,7.80
2019-01-30T13:04:42.996Z,8.10
2019-01-30T13:05:43.055Z,8.50
2019-01-30T13:06:43.117Z,8.30
2019-01-30T13:07:43.227Z,9.00
2019-01-30T13:08:43.146Z,8.90